createdAt,value
2019-04-06T00:01:51.973Z,34.03
2019-04-06T00:04:22.363Z,33.70
2019-04-06T00:06:52.849Z,35.23
2019-04-06T00:09:22.616Z,34.97
2019-04-06T00:11:52.850Z,33.50
2019-04-06T00:14:23.219Z,35.17
2019-04-06T00:16:53.671Z,34.93
2019-04-06T00:19:24.148Z,34.90
2019-04-06T00:21:54.498Z,33.40
2019-04-06T00:24:24.881Z,33.23
2019-04-06T00:26:55.246Z,33.67
2019-04-06T00:29:25.688Z,37.17
2019-04-06T00:32:14.929Z,35.13
2019-04-06T00:34:45.281Z,35.90
2019-04-06T00:37:15.614Z,35.17
2019-04-06T00:39:45.977Z,35.50
2019-04-06T00:42:16.339Z,39.47
2019-04-06T00:44:46.728Z,36.80
2019-04-06T00:47:17.190Z,36.00
2019-04-06T00:49:47.576Z,37.77
2019-04-06T00:52:18.075Z,38.90
2019-04-06T00:54:48.431Z,40.00
2019-04-06T00:57:18.794Z,39.53
2019-04-06T00:59:50.372Z,38.07
2019-04-06T01:02:20.966Z,39.23
2019-04-06T01:04:51.324Z,40.87
2019-04-06T01:07:23.089Z,40.00
2019-04-06T01:09:52.956Z,42.60
2019-04-06T01:12:22.644Z,41.17
2019-04-06T01:14:52.920Z,41.73
2019-04-06T01:17:23.847Z,40.48
2019-04-06T01:19:54.303Z,42.37
2019-04-06T01:22:25.381Z,44.83
2019-04-06T01:24:55.736Z,45.13
2019-04-06T01:27:26.107Z,44.70
2019-04-06T01:29:56.453Z,45.90
2019-04-06T01:32:26.833Z,47.90
2019-04-06T01:34:57.167Z,46.17
2019-04-06T01:37:27.553Z,46.90
2019-04-06T01:39:57.243Z,46.60
2019-04-06T01:42:27.503Z,45.53
2019-04-06T01:44:57.215Z,48.33
2019-04-06T01:47:27.624Z,45.40
2019-04-06T01:49:57.340Z,47.20
2019-04-06T01:52:27.586Z,47.03
2019-04-06T01:54:59.140Z,47.47
2019-04-06T01:57:29.197Z,47.17
2019-04-06T01:59:59.252Z,50.23
2019-04-06T02:02:31.878Z,49.83
2019-04-06T02:05:01.587Z,51.23
2019-04-06T02:07:31.918Z,51.33
2019-04-06T02:10:02.598Z,53.37
2019-04-06T02:12:32.922Z,53.40
2019-04-06T02:15:02.658Z,55.43
2019-04-06T02:17:32.916Z,55.80
2019-04-06T02:20:03.646Z,56.53
2019-04-06T02:22:34.017Z,53.10
2019-04-06T02:25:03.697Z,56.03
2019-04-06T02:27:33.924Z,54.60
2019-04-06T02:30:15.241Z,51.93
2019-04-06T02:32:56.070Z,55.37
2019-04-06T02:35:41.890Z,57.97
2019-04-06T02:38:30.098Z,55.17
2019-04-06T02:41:22.482Z,55.53
2019-04-06T02:43:52.811Z,59.63
2019-04-06T02:46:23.131Z,56.53
2019-04-06T02:48:53.477Z,57.87
2019-04-06T02:51:23.824Z,58.23
2019-04-06T02:53:54.149Z,60.20
2019-04-06T02:56:24.476Z,59.57
2019-04-06T02:58:54.851Z,59.57
2019-04-06T03:01:25.193Z,57.30
2019-04-06T03:03:55.500Z,61.37
2019-04-06T03:06:25.823Z,62.20
2019-04-06T03:08:56.173Z,59.83
2019-04-06T03:11:26.625Z,59.05
2019-04-06T03:13:56.915Z,56.83
2019-04-06T03:16:27.390Z,59.00
2019-04-06T03:18:57.820Z,59.20
2019-04-06T03:21:28.167Z,60.90
2019-04-06T03:23:57.823Z,59.13
2019-04-06T03:26:28.092Z,61.17
2019-04-06T03:28:58.680Z,61.30
2019-04-06T03:31:29.328Z,61.63
2019-04-06T03:33:59.802Z,62.13
2019-04-06T03:36:30.168Z,64.00
2019-04-06T03:39:00.503Z,63.03
2019-04-06T03:41:30.849Z,56.70
2019-04-06T03:44:01.164Z,59.90
2019-04-06T03:46:31.559Z,55.90
2019-04-06T03:49:01.922Z,61.47
2019-04-06T03:51:32.255Z,60.37
2019-04-06T03:54:02.754Z,61.97
2019-04-06T03:56:33.136Z,63.85
2019-04-06T03:59:04.462Z,64.43
2019-04-06T04:01:34.815Z,63.93
2019-04-06T04:04:05.141Z,61.40
2019-04-06T04:06:35.607Z,61.00
2019-04-06T04:09:05.974Z,62.70
2019-04-06T04:11:36.213Z,65.57
2019-04-06T04:14:06.543Z,66.37
2019-04-06T04:16:36.902Z,62.83
2019-04-06T04:19:07.219Z,60.20
2019-04-06T04:21:37.603Z,62.37
2019-04-06T04:24:08.121Z,60.03
2019-04-06T04:26:38.567Z,61.80
2019-04-06T04:29:09.095Z,64.83
2019-04-06T04:31:39.520Z,64.73
2019-04-06T04:34:09.855Z,64.17
2019-04-06T04:36:40.213Z,67.43
2019-04-06T04:39:10.548Z,70.23
2019-04-06T04:41:40.500Z,72.27
2019-04-06T04:44:10.975Z,73.10
2019-04-06T04:46:41.352Z,72.90
2019-04-06T04:49:11.704Z,70.80
2019-04-06T04:51:42.043Z,71.27
2019-04-06T04:54:12.497Z,73.40
2019-04-06T04:56:43.032Z,72.43
2019-04-06T04:59:13.303Z,71.57
2019-04-06T05:01:43.011Z,74.33
2019-04-06T05:04:13.230Z,70.80
2019-04-06T05:06:43.568Z,70.40
2019-04-06T05:09:13.902Z,71.13
2019-04-06T05:11:43.593Z,68.20
2019-04-06T05:15:02.394Z,71.60
2019-04-06T05:17:33.048Z,67.57
2019-04-06T05:20:03.463Z,73.37
2019-04-06T05:22:33.811Z,69.58
2019-04-06T05:25:04.390Z,67.62
2019-04-06T05:27:34.788Z,65.63
2019-04-06T05:30:06.745Z,67.63
2019-04-06T05:32:37.414Z,66.30
2019-04-06T05:35:08.100Z,68.70
2019-04-06T05:37:38.455Z,66.37
2019-04-06T05:40:08.888Z,67.03
2019-04-06T05:42:39.231Z,70.27
2019-04-06T05:45:09.579Z,69.93
2019-04-06T05:47:39.938Z,71.87
2019-04-06T05:50:10.414Z,71.23
2019-04-06T05:52:40.769Z,70.67
2019-04-06T05:55:11.236Z,75.10
2019-04-06T05:57:41.615Z,75.50
2019-04-06T06:00:12.851Z,75.70
2019-04-06T06:02:43.375Z,71.67
2019-04-06T06:05:13.879Z,74.30
2019-04-06T06:07:44.353Z,75.95
2019-04-06T06:10:14.872Z,75.87
2019-04-06T06:12:45.197Z,74.13
2019-04-06T06:15:15.658Z,74.53
2019-04-06T06:17:46.030Z,72.75
2019-04-06T06:20:16.500Z,73.93
2019-04-06T06:22:46.917Z,71.20
2019-04-06T06:25:17.575Z,73.07
2019-04-06T06:27:48.099Z,72.23
2019-04-06T06:30:18.357Z,72.57
2019-04-06T06:32:49.164Z,73.60
2019-04-06T06:35:19.527Z,72.23
2019-04-06T06:37:49.867Z,70.13
2019-04-06T06:40:20.235Z,72.80
2019-04-06T06:42:49.940Z,70.83
2019-04-06T06:45:20.358Z,70.63
2019-04-06T06:47:50.910Z,69.13
2019-04-06T06:50:21.307Z,71.77
2019-04-06T06:52:51.053Z,69.20
2019-04-06T06:55:21.513Z,70.10
2019-04-06T06:57:51.902Z,69.57
2019-04-06T07:00:22.602Z,71.30
2019-04-06T07:02:53.014Z,73.90
2019-04-06T07:05:23.635Z,72.53
2019-04-06T07:07:54.005Z,72.47
2019-04-06T07:10:24.532Z,71.83
2019-04-06T07:12:54.929Z,75.60
2019-04-06T07:15:25.287Z,69.97
2019-04-06T07:17:55.645Z,64.13
2019-04-06T07:20:25.979Z,69.53
2019-04-06T07:22:56.335Z,61.33
2019-04-06T07:25:26.847Z,59.98
2019-04-06T07:27:57.247Z,55.27
2019-04-06T07:30:27.918Z,51.20
2019-04-06T07:32:57.802Z,46.77
2019-04-06T07:35:27.459Z,44.50
2019-04-06T07:37:57.707Z,43.53
2019-04-06T07:40:28.056Z,42.08
2019-04-06T07:42:57.742Z,42.20
2019-04-06T07:45:28.099Z,42.47
2019-04-06T07:47:58.437Z,44.57
2019-04-06T07:50:28.843Z,43.50
2019-04-06T07:52:58.535Z,44.80
2019-04-06T07:55:28.405Z,47.07
2019-04-06T07:57:58.020Z,43.90
2019-04-06T08:00:27.637Z,44.07
2019-04-06T08:02:57.955Z,45.40
2019-04-06T08:05:28.301Z,43.40
2019-04-06T08:07:58.680Z,43.57
2019-04-06T08:10:29.026Z,44.70
2019-04-06T08:12:59.422Z,47.10
2019-04-06T08:15:29.815Z,46.10
2019-04-06T08:18:01.865Z,46.93
2019-04-06T08:20:32.286Z,45.87
2019-04-06T08:23:02.714Z,45.40
2019-04-06T08:25:33.087Z,44.63
2019-04-06T08:28:02.770Z,46.17
2019-04-06T08:30:44.385Z,46.07
2019-04-06T08:33:04.275Z,49.43
2019-04-06T08:35:33.870Z,46.02
2019-04-06T08:38:04.079Z,47.63
2019-04-06T08:40:34.551Z,46.00
2019-04-06T08:43:04.447Z,46.83
2019-04-06T08:45:34.711Z,46.33
2019-04-06T08:48:06.047Z,43.83
2019-04-06T08:50:35.953Z,44.15
2019-04-06T08:53:05.806Z,45.23
2019-04-06T08:55:36.721Z,47.10
2019-04-06T08:58:06.642Z,47.03
2019-04-06T09:00:36.455Z,46.20
2019-04-06T09:03:06.055Z,46.33
2019-04-06T09:05:36.332Z,45.60
2019-04-06T09:08:06.808Z,43.08
2019-04-06T09:10:37.198Z,42.40
2019-04-06T09:13:07.891Z,40.83
2019-04-06T09:15:38.278Z,39.97
2019-04-06T09:18:08.407Z,38.37
2019-04-06T09:20:38.015Z,39.07
2019-04-06T09:23:08.264Z,38.73
2019-04-06T09:25:40.323Z,37.53
2019-04-06T09:28:10.684Z,36.53
2019-04-06T09:30:41.884Z,37.33
2019-04-06T09:33:12.354Z,36.57
2019-04-06T09:35:42.664Z,37.10
2019-04-06T09:38:22.147Z,37.03
2019-04-06T09:40:51.985Z,36.90
2019-04-06T09:43:22.931Z,38.40
2019-04-06T09:46:10.777Z,34.93
2019-04-06T09:48:48.773Z,34.63
2019-04-06T09:51:46.865Z,33.70
2019-04-06T09:54:44.488Z,32.70
2019-04-06T09:57:39.700Z,31.27
2019-04-06T10:00:41.594Z,30.20
2019-04-06T10:03:29.747Z,31.30
2019-04-06T10:06:27.462Z,29.53
2019-04-06T10:09:15.703Z,29.60
2019-04-06T10:11:57.760Z,28.00
2019-04-06T10:14:45.369Z,26.77
2019-04-06T10:17:33.460Z,24.53
2019-04-06T10:20:35.253Z,24.27
2019-04-06T10:23:21.378Z,25.47
2019-04-06T10:26:01.294Z,25.67
2019-04-06T10:29:06.339Z,25.80
2019-04-06T10:31:56.412Z,23.20
2019-04-06T10:34:40.016Z,23.35
2019-04-06T10:37:32.099Z,23.10
2019-04-06T10:40:29.727Z,24.63
2019-04-06T10:43:23.114Z,22.80
2019-04-06T10:46:12.448Z,22.37
2019-04-06T10:48:53.369Z,22.33
2019-04-06T10:51:54.082Z,22.73
2019-04-06T10:54:42.801Z,21.33
2019-04-06T10:57:35.137Z,21.77
2019-04-06T11:00:23.610Z,19.03
2019-04-06T11:03:18.659Z,19.37
2019-04-06T11:06:10.476Z,20.73
2019-04-06T11:09:10.488Z,21.43
2019-04-06T11:12:05.945Z,21.60
2019-04-06T11:15:06.693Z,20.20
2019-04-06T11:17:59.371Z,21.70
2019-04-06T11:20:54.619Z,20.53
2019-04-06T11:23:43.031Z,21.42
2019-04-06T11:26:36.599Z,22.47
2019-04-06T11:29:41.121Z,21.97
2019-04-06T11:32:21.107Z,22.43
2019-04-06T11:35:00.630Z,22.50
2019-04-06T11:37:50.097Z,23.73
2019-04-06T11:40:39.406Z,23.00
2019-04-06T11:43:24.406Z,24.23
2019-04-06T11:46:09.215Z,24.33
2019-04-06T11:48:57.803Z,23.77
2019-04-06T11:51:47.099Z,23.80
2019-04-06T11:54:36.889Z,21.60
2019-04-06T11:57:12.562Z,22.10
2019-04-06T12:00:07.681Z,23.17
2019-04-06T12:02:55.302Z,22.20
2019-04-06T12:05:50.385Z,22.37
2019-04-06T12:08:38.530Z,21.93
2019-04-06T12:11:26.291Z,23.10
2019-04-06T12:14:09.238Z,22.33
2019-04-06T12:17:07.245Z,23.90
2019-04-06T12:19:46.131Z,25.40
2019-04-06T12:22:26.973Z,25.03
2019-04-06T12:25:13.935Z,26.10
2019-04-06T12:28:02.138Z,32.37
2019-04-06T12:30:57.372Z,36.57
2019-04-06T12:33:52.719Z,25.40
2019-04-06T12:36:45.067Z,24.10
2019-04-06T12:39:28.899Z,23.77
2019-04-06T12:42:16.305Z,24.30
2019-04-06T12:45:03.761Z,38.80
2019-04-06T12:47:56.181Z,40.53
2019-04-06T12:50:54.038Z,38.53
2019-04-06T12:53:48.983Z,40.37
2019-04-06T12:56:45.318Z,26.80
2019-04-06T12:59:35.616Z,24.13
2019-04-06T13:02:39.931Z,24.50
2019-04-06T13:05:31.895Z,25.13
2019-04-06T13:08:14.482Z,26.27
2019-04-06T13:10:57.916Z,27.10
2019-04-06T13:13:56.416Z,26.90
2019-04-06T13:16:54.283Z,27.55
2019-04-06T13:19:49.550Z,25.80
2019-04-06T13:22:28.619Z,25.32
2019-04-06T13:25:19.739Z,26.03
2019-04-06T13:28:00.698Z,24.45
2019-04-06T13:30:47.831Z,24.40
2019-04-06T13:33:36.867Z,25.87
2019-04-06T13:36:26.990Z,23.83
2019-04-06T13:39:12.232Z,24.13
2019-04-06T13:42:07.766Z,26.13
2019-04-06T13:44:59.475Z,24.17
2019-04-06T13:48:07.171Z,25.23
2019-04-06T13:50:46.348Z,26.33
2019-04-06T13:53:35.675Z,24.70
2019-04-06T13:56:35.195Z,24.27
2019-04-06T13:59:20.571Z,24.60
2019-04-06T14:02:09.941Z,26.47
2019-04-06T14:04:56.714Z,27.13
2019-04-06T14:07:48.743Z,26.77
2019-04-06T14:10:40.830Z,26.33
2019-04-06T14:13:48.862Z,28.93
2019-04-06T14:16:46.816Z,26.27
2019-04-06T14:19:34.954Z,26.70
2019-04-06T14:22:39.741Z,28.17
2019-04-06T14:25:22.892Z,30.70
2019-04-06T14:28:01.415Z,27.67
2019-04-06T14:30:49.197Z,25.20
2019-04-06T14:33:32.918Z,27.20
2019-04-06T14:36:28.392Z,26.30
2019-04-06T14:39:20.191Z,35.40
2019-04-06T14:42:12.110Z,30.60
2019-04-06T14:45:13.233Z,27.23
2019-04-06T14:48:05.303Z,28.37
2019-04-06T14:50:53.391Z,36.33
2019-04-06T14:53:36.338Z,39.27
2019-04-06T14:56:38.320Z,40.47
2019-04-06T14:59:30.423Z,38.13
2019-04-06T15:02:15.949Z,39.83
2019-04-06T15:05:20.279Z,38.87
2019-04-06T15:08:02.333Z,40.60
2019-04-06T15:10:50.611Z,40.07
2019-04-06T15:13:29.832Z,42.40
2019-04-06T15:16:15.513Z,41.17
2019-04-06T15:18:51.655Z,39.90
2019-04-06T15:21:46.203Z,40.33
2019-04-06T15:24:33.900Z,38.40
2019-04-06T15:27:38.293Z,38.83
2019-04-06T15:30:34.022Z,36.93
2019-04-06T15:33:21.244Z,36.70
2019-04-06T15:36:09.581Z,33.67
2019-04-06T15:39:17.081Z,31.90
2019-04-06T15:42:06.372Z,31.80
2019-04-06T15:45:01.574Z,30.43
2019-04-06T15:47:53.706Z,31.97
2019-04-06T15:50:49.169Z,33.60
2019-04-06T15:53:30.886Z,32.87
2019-04-06T15:56:07.100Z,32.17
2019-04-06T15:58:41.499Z,30.60
2019-04-06T16:01:29.354Z,33.50
2019-04-06T16:04:27.444Z,33.70
2019-04-06T16:07:31.220Z,33.20
2019-04-06T16:10:21.546Z,35.03
2019-04-06T16:13:08.171Z,32.17
2019-04-06T16:15:48.667Z,32.40
2019-04-06T16:18:41.252Z,32.30
2019-04-06T16:21:33.522Z,31.50
2019-04-06T16:24:25.870Z,32.40
2019-04-06T16:27:21.503Z,33.77
2019-04-06T16:30:09.656Z,31.80
2019-04-06T16:33:08.977Z,33.07
2019-04-06T16:35:56.350Z,33.67
2019-04-06T16:38:57.912Z,33.80
2019-04-06T16:41:38.263Z,33.60
2019-04-06T16:44:24.782Z,33.93
2019-04-06T16:47:10.548Z,33.27
2019-04-06T16:50:02.142Z,34.93
2019-04-06T16:52:50.096Z,38.00
2019-04-06T16:55:27.931Z,35.57
2019-04-06T16:58:11.974Z,33.93
2019-04-06T17:01:00.490Z,33.47
2019-04-06T17:03:48.378Z,33.53
2019-04-06T17:06:36.632Z,36.53
2019-04-06T17:09:28.867Z,33.77
2019-04-06T17:12:33.319Z,34.17
2019-04-06T17:15:31.860Z,33.47
2019-04-06T17:18:19.465Z,34.20
2019-04-06T17:21:03.709Z,32.43
2019-04-06T17:23:56.121Z,33.27
2019-04-06T17:26:44.527Z,32.37
2019-04-06T17:29:32.365Z,33.07
2019-04-06T17:32:25.782Z,33.03
2019-04-06T17:35:15.216Z,31.90
2019-04-06T17:38:04.467Z,33.17
2019-04-06T17:40:53.732Z,33.90
2019-04-06T17:43:41.541Z,32.23
2019-04-06T17:46:29.927Z,31.50
2019-04-06T17:49:25.259Z,33.47
2019-04-06T17:52:13.059Z,33.80
2019-04-06T17:55:01.256Z,33.30
2019-04-06T17:57:53.705Z,33.23
2019-04-06T18:00:48.351Z,32.73
2019-04-06T18:03:36.114Z,33.33
2019-04-06T18:06:20.378Z,34.37
2019-04-06T18:09:13.037Z,33.03
2019-04-06T18:11:51.055Z,33.20
2019-04-06T18:14:21.652Z,32.03
2019-04-06T18:16:51.581Z,32.07
2019-04-06T18:19:21.556Z,33.97
2019-04-06T18:21:51.734Z,33.67
2019-04-06T18:24:22.647Z,32.60
2019-04-06T18:26:52.363Z,33.63
2019-04-06T18:29:23.152Z,34.43
2019-04-06T18:32:08.445Z,33.37
2019-04-06T18:34:38.847Z,31.37
2019-04-06T18:37:37.918Z,32.77
2019-04-06T18:40:23.805Z,33.33
2019-04-06T18:42:54.529Z,33.73
2019-04-06T18:45:25.782Z,33.37
2019-04-06T18:47:55.850Z,32.20
2019-04-06T18:50:34.404Z,34.87
2019-04-06T18:52:58.095Z,33.70
2019-04-06T18:55:28.914Z,36.93
2019-04-06T18:58:08.726Z,37.53
2019-04-06T19:00:30.952Z,36.47
2019-04-06T19:03:12.542Z,39.47
2019-04-06T19:05:33.475Z,39.07
2019-04-06T19:08:04.206Z,40.20
2019-04-06T19:10:34.835Z,38.98
2019-04-06T19:13:05.505Z,38.43
2019-04-06T19:15:35.825Z,38.40
2019-04-06T19:18:06.116Z,37.57
2019-04-06T19:20:37.198Z,39.60
2019-04-06T19:23:08.136Z,37.47
2019-04-06T19:25:38.537Z,37.13
2019-04-06T19:28:09.284Z,35.40
2019-04-06T19:30:39.712Z,37.27
2019-04-06T19:33:21.739Z,36.03
2019-04-06T19:35:41.990Z,38.93
2019-04-06T19:38:12.464Z,35.93
2019-04-06T19:40:42.148Z,34.40
2019-04-06T19:43:12.390Z,37.50
2019-04-06T19:45:43.024Z,36.13
2019-04-06T19:48:14.037Z,38.57
2019-04-06T19:50:44.676Z,36.93
2019-04-06T19:53:15.070Z,36.63
2019-04-06T19:55:45.556Z,35.80
2019-04-06T19:58:15.850Z,37.63
2019-04-06T20:00:46.869Z,38.10
2019-04-06T20:03:17.353Z,37.37
2019-04-06T20:05:47.677Z,36.00
2019-04-06T20:08:18.027Z,37.30
2019-04-06T20:10:48.346Z,36.57
2019-04-06T20:13:18.683Z,37.23
2019-04-06T20:15:49.216Z,38.23
2019-04-06T20:18:19.794Z,37.70
2019-04-06T20:20:50.495Z,38.33
2019-04-06T20:23:21.080Z,38.90
2019-04-06T20:25:51.961Z,38.17
2019-04-06T20:28:22.497Z,38.17
2019-04-06T20:30:53.272Z,38.77
2019-04-06T20:33:23.683Z,39.10
2019-04-06T20:35:53.431Z,37.23
2019-04-06T20:38:24.627Z,38.17
2019-04-06T20:40:55.086Z,39.83
2019-04-06T20:43:25.485Z,39.90
2019-04-06T20:45:55.861Z,39.67
2019-04-06T20:48:28.223Z,41.23
2019-04-06T20:50:58.702Z,41.20
2019-04-06T20:53:29.390Z,41.20
2019-04-06T20:56:00.708Z,40.90
2019-04-06T20:58:30.462Z,38.20
2019-04-06T21:01:00.705Z,40.43
2019-04-06T21:03:31.055Z,40.73
2019-04-06T21:06:01.876Z,39.03
2019-04-06T21:08:32.320Z,40.63
2019-04-06T21:11:02.683Z,40.33
2019-04-06T21:13:33.132Z,38.00
2019-04-06T21:16:03.561Z,40.57
2019-04-06T21:18:33.510Z,41.23
2019-04-06T21:21:03.779Z,39.30
2019-04-06T21:23:34.105Z,39.20
2019-04-06T21:26:04.564Z,39.17
2019-04-06T21:28:35.457Z,38.10
2019-04-06T21:31:05.289Z,36.67
2019-04-06T21:33:35.687Z,38.87
2019-04-06T21:36:06.072Z,37.73
2019-04-06T21:38:36.436Z,37.03
2019-04-06T21:41:07.019Z,39.53
2019-04-06T21:43:38.013Z,36.10
2019-04-06T21:46:08.909Z,38.17
2019-04-06T21:48:39.284Z,34.50
2019-04-06T21:51:09.737Z,34.60
2019-04-06T21:53:40.242Z,37.90
2019-04-06T21:56:11.112Z,35.07
2019-04-06T21:58:41.615Z,36.20
2019-04-06T22:01:14.633Z,35.33
2019-04-06T22:03:44.975Z,37.53
2019-04-06T22:06:19.360Z,37.33
2019-04-06T22:08:50.136Z,36.57
2019-04-06T22:11:20.531Z,36.70
2019-04-06T22:13:51.232Z,34.73
2019-04-06T22:16:20.967Z,36.47
2019-04-06T22:18:51.203Z,35.00
2019-04-06T22:21:21.630Z,33.80
2019-04-06T22:23:52.414Z,35.10
2019-04-06T22:26:22.618Z,34.47
2019-04-06T22:28:52.776Z,35.73
2019-04-06T22:31:22.492Z,37.63
2019-04-06T22:33:52.744Z,36.40
2019-04-06T22:36:23.318Z,36.87
2019-04-06T22:38:53.849Z,35.07
2019-04-06T22:41:24.270Z,36.77
2019-04-06T22:43:55.034Z,37.47
2019-04-06T22:46:25.426Z,39.42
2019-04-06T22:48:56.163Z,39.80
2019-04-06T22:51:26.595Z,35.43
2019-04-06T22:53:56.918Z,37.33
2019-04-06T22:56:27.143Z,36.07
2019-04-06T22:58:58.013Z,37.17
2019-04-06T23:01:30.987Z,35.00
2019-04-06T23:04:32.502Z,39.10
2019-04-06T23:07:08.511Z,38.43
2019-04-06T23:09:38.865Z,37.47
2019-04-06T23:12:10.172Z,39.97
2019-04-06T23:14:44.308Z,38.23
2019-04-06T23:17:14.730Z,39.20
2019-04-06T23:19:46.259Z,36.00
2019-04-06T23:22:17.195Z,36.57
2019-04-06T23:24:47.989Z,38.33
2019-04-06T23:27:18.509Z,37.63
2019-04-06T23:29:51.803Z,38.63
2019-04-06T23:32:21.558Z,40.30
2019-04-06T23:34:58.754Z,39.33
2019-04-06T23:37:24.220Z,37.10
2019-04-06T23:39:54.961Z,39.57
2019-04-06T23:42:25.266Z,38.02
2019-04-06T23:44:55.602Z,37.77
2019-04-06T23:47:25.918Z,36.63
2019-04-06T23:49:56.293Z,35.10
2019-04-06T23:52:26.563Z,37.40
2019-04-06T23:54:57.212Z,39.73
2019-04-06T23:57:27.502Z,38.23
2019-04-06T23:59:58.165Z,37.80
